sensor_id;sensor_type;location;lat;lon;timestamp;P1;durP1;ratioP1;P2;durP2;ratioP2
3967;SDS011;9221;42.646;23.380;2023-02-11T00:01:23;29.03;;;7.43;;
3967;SDS011;9221;42.646;23.380;2023-02-11T00:03:49;24.93;;;7.60;;
3967;SDS011;9221;42.646;23.380;2023-02-11T00:06:14;19.20;;;6.63;;
3967;SDS011;9221;42.646;23.380;2023-02-11T00:08:40;19.33;;;6.27;;
3967;SDS011;9221;42.646;23.380;2023-02-11T00:11:05;26.30;;;7.47;;
3967;SDS011;9221;42.646;23.380;2023-02-11T00:13:31;20.93;;;6.70;;
3967;SDS011;9221;42.646;23.380;2023-02-11T00:15:57;17.27;;;5.40;;
3967;SDS011;9221;42.646;23.380;2023-02-11T00:18:22;28.33;;;7.20;;
3967;SDS011;9221;42.646;23.380;2023-02-11T00:20:48;25.60;;;7.10;;
3967;SDS011;9221;42.646;23.380;2023-02-11T00:23:13;20.33;;;7.07;;
3967;SDS011;9221;42.646;23.380;2023-02-11T00:25:39;24.23;;;6.27;;
3967;SDS011;9221;42.646;23.380;2023-02-11T00:28:06;25.57;;;7.30;;
3967;SDS011;9221;42.646;23.380;2023-02-11T00:30:32;17.80;;;5.90;;
3967;SDS011;9221;42.646;23.380;2023-02-11T00:32:57;22.87;;;6.57;;
3967;SDS011;9221;42.646;23.380;2023-02-11T00:35:22;25.40;;;6.97;;
3967;SDS011;9221;42.646;23.380;2023-02-11T00:37:48;21.60;;;7.10;;
3967;SDS011;9221;42.646;23.380;2023-02-11T00:40:13;19.70;;;6.03;;
3967;SDS011;9221;42.646;23.380;2023-02-11T00:42:40;28.63;;;6.63;;
3967;SDS011;9221;42.646;23.380;2023-02-11T00:45:06;23.43;;;6.73;;
3967;SDS011;9221;42.646;23.380;2023-02-11T00:47:33;18.40;;;6.90;;
3967;SDS011;9221;42.646;23.380;2023-02-11T00:49:59;23.60;;;6.60;;
3967;SDS011;9221;42.646;23.380;2023-02-11T00:52:25;13.63;;;5.40;;
3967;SDS011;9221;42.646;23.380;2023-02-11T00:54:51;22.80;;;7.10;;
3967;SDS011;9221;42.646;23.380;2023-02-11T00:57:16;14.80;;;5.67;;
3967;SDS011;9221;42.646;23.380;2023-02-11T00:59:42;19.30;;;5.77;;
3967;SDS011;9221;42.646;23.380;2023-02-11T01:02:07;14.17;;;5.80;;
3967;SDS011;9221;42.646;23.380;2023-02-11T01:04:33;16.80;;;6.00;;
3967;SDS011;9221;42.646;23.380;2023-02-11T01:06:58;22.50;;;6.07;;
3967;SDS011;9221;42.646;23.380;2023-02-11T01:09:23;19.70;;;6.10;;
3967;SDS011;9221;42.646;23.380;2023-02-11T01:11:49;24.73;;;6.33;;
3967;SDS011;9221;42.646;23.380;2023-02-11T01:14:14;21.70;;;6.27;;
3967;SDS011;9221;42.646;23.380;2023-02-11T01:16:40;17.70;;;6.00;;
3967;SDS011;9221;42.646;23.380;2023-02-11T01:19:05;23.97;;;6.20;;
3967;SDS011;9221;42.646;23.380;2023-02-11T01:21:30;20.07;;;6.23;;
3967;SDS011;9221;42.646;23.380;2023-02-11T01:23:56;23.90;;;6.57;;
3967;SDS011;9221;42.646;23.380;2023-02-11T01:26:21;17.50;;;5.37;;
3967;SDS011;9221;42.646;23.380;2023-02-11T01:28:47;19.73;;;6.27;;
3967;SDS011;9221;42.646;23.380;2023-02-11T01:31:12;23.17;;;6.97;;
3967;SDS011;9221;42.646;23.380;2023-02-11T01:33:56;19.83;;;6.13;;
3967;SDS011;9221;42.646;23.380;2023-02-11T01:36:22;27.97;;;6.90;;
3967;SDS011;9221;42.646;23.380;2023-02-11T01:38:47;26.67;;;6.80;;
3967;SDS011;9221;42.646;23.380;2023-02-11T01:41:14;15.70;;;6.50;;
3967;SDS011;9221;42.646;23.380;2023-02-11T01:43:41;24.73;;;6.13;;
3967;SDS011;9221;42.646;23.380;2023-02-11T01:51:39;26.73;;;5.70;;
3967;SDS011;9221;42.646;23.380;2023-02-11T01:54:09;20.13;;;5.83;;
3967;SDS011;9221;42.646;23.380;2023-02-11T01:57:05;19.43;;;6.10;;
3967;SDS011;9221;42.646;23.380;2023-02-11T02:02:22;18.10;;;6.13;;
3967;SDS011;9221;42.646;23.380;2023-02-11T02:07:43;20.70;;;6.93;;
3967;SDS011;9221;42.646;23.380;2023-02-11T02:10:16;21.17;;;6.60;;
3967;SDS011;9221;42.646;23.380;2023-02-11T02:12:45;24.30;;;6.17;;
3967;SDS011;9221;42.646;23.380;2023-02-11T02:15:17;23.10;;;6.00;;
3967;SDS011;9221;42.646;23.380;2023-02-11T02:17:58;17.53;;;6.07;;
3967;SDS011;9221;42.646;23.380;2023-02-11T02:25:58;18.53;;;5.70;;
3967;SDS011;9221;42.646;23.380;2023-02-11T02:28:42;19.90;;;4.93;;
3967;SDS011;9221;42.646;23.380;2023-02-11T02:31:32;16.17;;;5.27;;
3967;SDS011;9221;42.646;23.380;2023-02-11T02:34:08;19.40;;;6.40;;
3967;SDS011;9221;42.646;23.380;2023-02-11T02:36:42;23.83;;;5.60;;
3967;SDS011;9221;42.646;23.380;2023-02-11T02:39:17;21.40;;;4.73;;
3967;SDS011;9221;42.646;23.380;2023-02-11T02:41:46;23.70;;;6.10;;
3967;SDS011;9221;42.646;23.380;2023-02-11T02:44:13;20.33;;;6.00;;
3967;SDS011;9221;42.646;23.380;2023-02-11T02:46:38;20.83;;;6.00;;
3967;SDS011;9221;42.646;23.380;2023-02-11T02:49:05;22.70;;;6.00;;
3967;SDS011;9221;42.646;23.380;2023-02-11T03:02:30;18.93;;;5.90;;
3967;SDS011;9221;42.646;23.380;2023-02-11T03:07:50;19.07;;;5.77;;
3967;SDS011;9221;42.646;23.380;2023-02-11T03:10:30;10.10;;;4.00;;
3967;SDS011;9221;42.646;23.380;2023-02-11T03:12:59;20.13;;;5.77;;
3967;SDS011;9221;42.646;23.380;2023-02-11T03:15:27;15.13;;;4.37;;
3967;SDS011;9221;42.646;23.380;2023-02-11T03:17:57;16.40;;;4.73;;
3967;SDS011;9221;42.646;23.380;2023-02-11T03:20:24;22.23;;;4.00;;
3967;SDS011;9221;42.646;23.380;2023-02-11T03:22:59;13.80;;;4.13;;
3967;SDS011;9221;42.646;23.380;2023-02-11T03:25:29;16.87;;;4.90;;
3967;SDS011;9221;42.646;23.380;2023-02-11T03:30:46;10.40;;;4.10;;
3967;SDS011;9221;42.646;23.380;2023-02-11T03:33:48;12.57;;;3.30;;
3967;SDS011;9221;42.646;23.380;2023-02-11T03:36:31;15.90;;;4.10;;
3967;SDS011;9221;42.646;23.380;2023-02-11T03:39:07;23.97;;;5.30;;
3967;SDS011;9221;42.646;23.380;2023-02-11T03:41:34;10.80;;;4.70;;
3967;SDS011;9221;42.646;23.380;2023-02-11T03:44:01;14.23;;;3.70;;
3967;SDS011;9221;42.646;23.380;2023-02-11T03:46:30;18.73;;;4.63;;
3967;SDS011;9221;42.646;23.380;2023-02-11T03:49:00;19.23;;;4.03;;
3967;SDS011;9221;42.646;23.380;2023-02-11T03:51:29;26.57;;;6.57;;
3967;SDS011;9221;42.646;23.380;2023-02-11T03:53:57;15.90;;;4.47;;
3967;SDS011;9221;42.646;23.380;2023-02-11T03:56:27;11.10;;;4.60;;
3967;SDS011;9221;42.646;23.380;2023-02-11T03:58:55;16.60;;;4.13;;
3967;SDS011;9221;42.646;23.380;2023-02-11T04:01:21;9.40;;;3.90;;
3967;SDS011;9221;42.646;23.380;2023-02-11T04:03:47;30.20;;;6.30;;
3967;SDS011;9221;42.646;23.380;2023-02-11T04:06:12;12.30;;;4.07;;
3967;SDS011;9221;42.646;23.380;2023-02-11T04:08:37;12.47;;;3.70;;
3967;SDS011;9221;42.646;23.380;2023-02-11T04:11:03;9.03;;;3.77;;
3967;SDS011;9221;42.646;23.380;2023-02-11T04:13:28;26.27;;;5.77;;
3967;SDS011;9221;42.646;23.380;2023-02-11T04:15:54;10.60;;;3.90;;
3967;SDS011;9221;42.646;23.380;2023-02-11T04:18:19;20.67;;;3.80;;
3967;SDS011;9221;42.646;23.380;2023-02-11T04:20:45;15.10;;;4.27;;
3967;SDS011;9221;42.646;23.380;2023-02-11T04:23:10;15.20;;;4.70;;
3967;SDS011;9221;42.646;23.380;2023-02-11T04:25:35;14.00;;;3.43;;
3967;SDS011;9221;42.646;23.380;2023-02-11T04:28:01;15.17;;;3.87;;
3967;SDS011;9221;42.646;23.380;2023-02-11T04:30:26;14.10;;;5.10;;
3967;SDS011;9221;42.646;23.380;2023-02-11T04:32:52;14.77;;;4.80;;
3967;SDS011;9221;42.646;23.380;2023-02-11T04:35:18;22.40;;;6.20;;
3967;SDS011;9221;42.646;23.380;2023-02-11T04:37:44;17.50;;;4.47;;
3967;SDS011;9221;42.646;23.380;2023-02-11T04:40:09;17.97;;;4.80;;
3967;SDS011;9221;42.646;23.380;2023-02-11T04:42:35;18.23;;;4.17;;
3967;SDS011;9221;42.646;23.380;2023-02-11T04:45:00;12.07;;;3.43;;
3967;SDS011;9221;42.646;23.380;2023-02-11T04:47:25;19.03;;;5.70;;
3967;SDS011;9221;42.646;23.380;2023-02-11T04:49:51;22.47;;;4.83;;
3967;SDS011;9221;42.646;23.380;2023-02-11T04:52:16;15.97;;;4.43;;
3967;SDS011;9221;42.646;23.380;2023-02-11T04:54:42;25.20;;;5.23;;
3967;SDS011;9221;42.646;23.380;2023-02-11T04:57:07;23.20;;;5.30;;
3967;SDS011;9221;42.646;23.380;2023-02-11T04:59:32;20.63;;;4.90;;
3967;SDS011;9221;42.646;23.380;2023-02-11T05:01:58;24.03;;;5.07;;
3967;SDS011;9221;42.646;23.380;2023-02-11T05:04:23;16.60;;;4.87;;
3967;SDS011;9221;42.646;23.380;2023-02-11T05:06:49;11.27;;;3.97;;
3967;SDS011;9221;42.646;23.380;2023-02-11T05:09:14;31.23;;;4.97;;
3967;SDS011;9221;42.646;23.380;2023-02-11T05:11:41;20.27;;;5.50;;
3967;SDS011;9221;42.646;23.380;2023-02-11T05:14:06;19.50;;;4.87;;
3967;SDS011;9221;42.646;23.380;2023-02-11T05:16:32;15.50;;;5.77;;
3967;SDS011;9221;42.646;23.380;2023-02-11T05:18:57;18.87;;;5.20;;
3967;SDS011;9221;42.646;23.380;2023-02-11T05:21:23;28.67;;;5.17;;
3967;SDS011;9221;42.646;23.380;2023-02-11T05:23:49;23.53;;;4.80;;
3967;SDS011;9221;42.646;23.380;2023-02-11T05:26:15;34.73;;;5.63;;
3967;SDS011;9221;42.646;23.380;2023-02-11T05:28:42;18.33;;;5.43;;
3967;SDS011;9221;42.646;23.380;2023-02-11T05:31:08;15.63;;;5.13;;
3967;SDS011;9221;42.646;23.380;2023-02-11T05:33:35;16.00;;;5.47;;
3967;SDS011;9221;42.646;23.380;2023-02-11T05:36:04;16.03;;;4.27;;
3967;SDS011;9221;42.646;23.380;2023-02-11T05:38:32;22.13;;;5.20;;
3967;SDS011;9221;42.646;23.380;2023-02-11T05:40:58;22.07;;;5.70;;
3967;SDS011;9221;42.646;23.380;2023-02-11T05:43:24;24.13;;;4.87;;
3967;SDS011;9221;42.646;23.380;2023-02-11T05:45:49;19.40;;;5.00;;
3967;SDS011;9221;42.646;23.380;2023-02-11T05:48:15;17.73;;;5.40;;
3967;SDS011;9221;42.646;23.380;2023-02-11T05:50:40;18.70;;;5.97;;
3967;SDS011;9221;42.646;23.380;2023-02-11T05:53:06;16.13;;;4.23;;
3967;SDS011;9221;42.646;23.380;2023-02-11T05:55:32;12.50;;;3.73;;
3967;SDS011;9221;42.646;23.380;2023-02-11T05:57:57;12.47;;;4.10;;
3967;SDS011;9221;42.646;23.380;2023-02-11T06:00:23;25.87;;;6.53;;
3967;SDS011;9221;42.646;23.380;2023-02-11T06:02:48;22.43;;;5.97;;
3967;SDS011;9221;42.646;23.380;2023-02-11T06:05:14;21.30;;;5.90;;
3967;SDS011;9221;42.646;23.380;2023-02-11T06:07:39;25.57;;;5.17;;
3967;SDS011;9221;42.646;23.380;2023-02-11T06:10:05;17.90;;;5.77;;
3967;SDS011;9221;42.646;23.380;2023-02-11T06:12:31;17.07;;;4.83;;
3967;SDS011;9221;42.646;23.380;2023-02-11T06:14:57;18.83;;;6.80;;
3967;SDS011;9221;42.646;23.380;2023-02-11T06:17:22;18.47;;;5.53;;
3967;SDS011;9221;42.646;23.380;2023-02-11T06:19:48;17.80;;;5.87;;
3967;SDS011;9221;42.646;23.380;2023-02-11T06:22:13;21.40;;;6.33;;
3967;SDS011;9221;42.646;23.380;2023-02-11T06:24:39;22.27;;;6.13;;
3967;SDS011;9221;42.646;23.380;2023-02-11T06:27:05;20.70;;;6.83;;
3967;SDS011;9221;42.646;23.380;2023-02-11T06:29:30;21.43;;;5.63;;
3967;SDS011;9221;42.646;23.380;2023-02-11T06:31:56;20.93;;;6.37;;
3967;SDS011;9221;42.646;23.380;2023-02-11T06:34:21;22.73;;;6.63;;
3967;SDS011;9221;42.646;23.380;2023-02-11T06:36:47;21.57;;;6.10;;
3967;SDS011;9221;42.646;23.380;2023-02-11T06:39:12;21.73;;;6.23;;
3967;SDS011;9221;42.646;23.380;2023-02-11T06:41:38;22.80;;;5.73;;
3967;SDS011;9221;42.646;23.380;2023-02-11T06:44:04;31.80;;;7.53;;
3967;SDS011;9221;42.646;23.380;2023-02-11T06:46:29;24.63;;;6.10;;
3967;SDS011;9221;42.646;23.380;2023-02-11T06:48:55;38.13;;;8.80;;
3967;SDS011;9221;42.646;23.380;2023-02-11T06:51:20;23.60;;;9.10;;
3967;SDS011;9221;42.646;23.380;2023-02-11T06:53:46;25.17;;;7.20;;
3967;SDS011;9221;42.646;23.380;2023-02-11T06:56:13;31.20;;;9.27;;
3967;SDS011;9221;42.646;23.380;2023-02-11T06:58:43;32.10;;;9.20;;
3967;SDS011;9221;42.646;23.380;2023-02-11T07:01:10;30.20;;;9.07;;
3967;SDS011;9221;42.646;23.380;2023-02-11T07:03:38;30.93;;;9.60;;
3967;SDS011;9221;42.646;23.380;2023-02-11T07:06:07;21.40;;;8.37;;
3967;SDS011;9221;42.646;23.380;2023-02-11T07:08:35;43.53;;;11.03;;
3967;SDS011;9221;42.646;23.380;2023-02-11T07:11:11;36.63;;;10.17;;
3967;SDS011;9221;42.646;23.380;2023-02-11T07:13:39;37.63;;;11.40;;
3967;SDS011;9221;42.646;23.380;2023-02-11T07:16:08;44.63;;;17.00;;
3967;SDS011;9221;42.646;23.380;2023-02-11T07:18:36;36.57;;;11.73;;
3967;SDS011;9221;42.646;23.380;2023-02-11T07:21:05;38.30;;;11.70;;
3967;SDS011;9221;42.646;23.380;2023-02-11T07:23:33;35.20;;;11.87;;
3967;SDS011;9221;42.646;23.380;2023-02-11T07:26:03;39.40;;;10.33;;
3967;SDS011;9221;42.646;23.380;2023-02-11T07:28:29;35.63;;;11.53;;
3967;SDS011;9221;42.646;23.380;2023-02-11T07:30:55;39.17;;;11.10;;
3967;SDS011;9221;42.646;23.380;2023-02-11T07:33:21;41.90;;;10.83;;
3967;SDS011;9221;42.646;23.380;2023-02-11T07:35:46;37.50;;;10.63;;
3967;SDS011;9221;42.646;23.380;2023-02-11T07:38:12;32.07;;;11.20;;
3967;SDS011;9221;42.646;23.380;2023-02-11T07:40:37;37.70;;;11.20;;
3967;SDS011;9221;42.646;23.380;2023-02-11T07:43:03;33.13;;;10.13;;
3967;SDS011;9221;42.646;23.380;2023-02-11T07:45:28;45.47;;;12.57;;
3967;SDS011;9221;42.646;23.380;2023-02-11T07:47:54;35.70;;;10.50;;
3967;SDS011;9221;42.646;23.380;2023-02-11T07:50:19;35.83;;;9.90;;
3967;SDS011;9221;42.646;23.380;2023-02-11T07:52:44;35.23;;;11.03;;
3967;SDS011;9221;42.646;23.380;2023-02-11T07:55:10;32.90;;;11.47;;
3967;SDS011;9221;42.646;23.380;2023-02-11T07:57:35;35.87;;;10.77;;
3967;SDS011;9221;42.646;23.380;2023-02-11T08:00:01;32.10;;;9.27;;
3967;SDS011;9221;42.646;23.380;2023-02-11T08:02:28;34.93;;;10.10;;
3967;SDS011;9221;42.646;23.380;2023-02-11T08:04:53;31.70;;;9.70;;
3967;SDS011;9221;42.646;23.380;2023-02-11T08:07:19;35.70;;;10.43;;
3967;SDS011;9221;42.646;23.380;2023-02-11T08:09:46;32.60;;;10.60;;
3967;SDS011;9221;42.646;23.380;2023-02-11T08:12:11;36.27;;;9.53;;
3967;SDS011;9221;42.646;23.380;2023-02-11T08:14:37;34.47;;;9.30;;
3967;SDS011;9221;42.646;23.380;2023-02-11T08:17:02;33.50;;;10.80;;
3967;SDS011;9221;42.646;23.380;2023-02-11T08:19:28;25.60;;;9.60;;
3967;SDS011;9221;42.646;23.380;2023-02-11T08:21:56;24.63;;;9.07;;
3967;SDS011;9221;42.646;23.380;2023-02-11T08:24:23;38.23;;;10.50;;
3967;SDS011;9221;42.646;23.380;2023-02-11T08:26:49;36.83;;;9.07;;
3967;SDS011;9221;42.646;23.380;2023-02-11T08:29:15;39.10;;;10.33;;
3967;SDS011;9221;42.646;23.380;2023-02-11T08:31:42;35.50;;;10.50;;
3967;SDS011;9221;42.646;23.380;2023-02-11T08:34:10;41.63;;;10.33;;
3967;SDS011;9221;42.646;23.380;2023-02-11T08:36:38;28.20;;;10.40;;
3967;SDS011;9221;42.646;23.380;2023-02-11T08:39:06;26.90;;;10.50;;
3967;SDS011;9221;42.646;23.380;2023-02-11T08:41:36;35.07;;;11.73;;
3967;SDS011;9221;42.646;23.380;2023-02-11T08:44:01;31.40;;;11.57;;
3967;SDS011;9221;42.646;23.380;2023-02-11T08:46:27;28.13;;;10.30;;
3967;SDS011;9221;42.646;23.380;2023-02-11T08:48:53;34.53;;;10.27;;
3967;SDS011;9221;42.646;23.380;2023-02-11T08:51:27;36.53;;;10.90;;
3967;SDS011;9221;42.646;23.380;2023-02-11T08:53:57;34.13;;;11.10;;
3967;SDS011;9221;42.646;23.380;2023-02-11T08:56:23;33.20;;;11.23;;
3967;SDS011;9221;42.646;23.380;2023-02-11T08:58:49;39.57;;;11.50;;
3967;SDS011;9221;42.646;23.380;2023-02-11T09:01:17;27.83;;;10.97;;
3967;SDS011;9221;42.646;23.380;2023-02-11T09:03:44;32.53;;;11.07;;
3967;SDS011;9221;42.646;23.380;2023-02-11T09:06:10;32.97;;;11.70;;
3967;SDS011;9221;42.646;23.380;2023-02-11T09:08:38;32.30;;;11.63;;
3967;SDS011;9221;42.646;23.380;2023-02-11T09:11:05;31.23;;;12.10;;
3967;SDS011;9221;42.646;23.380;2023-02-11T09:13:31;36.73;;;11.73;;
3967;SDS011;9221;42.646;23.380;2023-02-11T09:15:57;30.70;;;11.33;;
3967;SDS011;9221;42.646;23.380;2023-02-11T09:18:23;30.37;;;11.47;;
3967;SDS011;9221;42.646;23.380;2023-02-11T09:20:49;34.63;;;11.37;;
3967;SDS011;9221;42.646;23.380;2023-02-11T09:23:15;37.47;;;10.53;;
3967;SDS011;9221;42.646;23.380;2023-02-11T09:25:40;38.03;;;12.53;;
3967;SDS011;9221;42.646;23.380;2023-02-11T09:28:06;34.77;;;12.00;;
3967;SDS011;9221;42.646;23.380;2023-02-11T09:30:34;31.00;;;11.27;;
3967;SDS011;9221;42.646;23.380;2023-02-11T09:33:01;33.73;;;11.90;;
3967;SDS011;9221;42.646;23.380;2023-02-11T09:35:27;35.87;;;12.47;;
3967;SDS011;9221;42.646;23.380;2023-02-11T09:37:52;37.23;;;11.50;;
3967;SDS011;9221;42.646;23.380;2023-02-11T09:40:18;32.87;;;10.77;;
3967;SDS011;9221;42.646;23.380;2023-02-11T09:45:41;34.17;;;10.90;;
3967;SDS011;9221;42.646;23.380;2023-02-11T09:48:17;36.73;;;11.17;;
3967;SDS011;9221;42.646;23.380;2023-02-11T09:50:49;25.80;;;8.93;;
3967;SDS011;9221;42.646;23.380;2023-02-11T09:53:25;32.53;;;10.00;;
3967;SDS011;9221;42.646;23.380;2023-02-11T09:55:54;32.33;;;10.10;;
3967;SDS011;9221;42.646;23.380;2023-02-11T09:58:25;31.43;;;10.00;;
3967;SDS011;9221;42.646;23.380;2023-02-11T10:09:03;31.73;;;10.30;;
3967;SDS011;9221;42.646;23.380;2023-02-11T10:17:39;22.80;;;9.50;;
3967;SDS011;9221;42.646;23.380;2023-02-11T10:25:59;35.23;;;9.83;;
3967;SDS011;9221;42.646;23.380;2023-02-11T10:28:28;25.47;;;10.10;;
3967;SDS011;9221;42.646;23.380;2023-02-11T10:31:00;24.43;;;8.83;;
3967;SDS011;9221;42.646;23.380;2023-02-11T10:33:35;25.37;;;8.30;;
3967;SDS011;9221;42.646;23.380;2023-02-11T10:36:03;28.30;;;9.70;;
3967;SDS011;9221;42.646;23.380;2023-02-11T10:38:29;22.77;;;8.70;;
3967;SDS011;9221;42.646;23.380;2023-02-11T10:40:54;23.60;;;8.67;;
3967;SDS011;9221;42.646;23.380;2023-02-11T10:43:22;21.37;;;7.83;;
3967;SDS011;9221;42.646;23.380;2023-02-11T10:45:51;28.60;;;8.60;;
3967;SDS011;9221;42.646;23.380;2023-02-11T10:51:13;21.57;;;8.30;;
3967;SDS011;9221;42.646;23.380;2023-02-11T10:53:45;25.37;;;8.87;;
3967;SDS011;9221;42.646;23.380;2023-02-11T10:56:36;22.50;;;6.83;;
3967;SDS011;9221;42.646;23.380;2023-02-11T11:01:47;18.03;;;6.63;;
3967;SDS011;9221;42.646;23.380;2023-02-11T11:10:04;31.13;;;7.70;;
3967;SDS011;9221;42.646;23.380;2023-02-11T11:15:22;27.57;;;8.10;;
3967;SDS011;9221;42.646;23.380;2023-02-11T11:17:50;25.50;;;8.33;;
3967;SDS011;9221;42.646;23.380;2023-02-11T11:20:43;19.47;;;6.80;;
3967;SDS011;9221;42.646;23.380;2023-02-11T11:23:20;26.47;;;7.30;;
3967;SDS011;9221;42.646;23.380;2023-02-11T11:26:03;25.10;;;7.47;;
3967;SDS011;9221;42.646;23.380;2023-02-11T11:28:32;24.03;;;7.20;;
3967;SDS011;9221;42.646;23.380;2023-02-11T11:31:02;28.53;;;8.67;;
3967;SDS011;9221;42.646;23.380;2023-02-11T11:33:33;22.50;;;7.43;;
3967;SDS011;9221;42.646;23.380;2023-02-11T11:36:03;31.50;;;8.30;;
3967;SDS011;9221;42.646;23.380;2023-02-11T11:38:33;21.07;;;6.10;;
3967;SDS011;9221;42.646;23.380;2023-02-11T11:46:26;22.07;;;7.80;;
3967;SDS011;9221;42.646;23.380;2023-02-11T11:49:11;23.03;;;7.13;;
3967;SDS011;9221;42.646;23.380;2023-02-11T11:51:41;17.40;;;6.20;;
3967;SDS011;9221;42.646;23.380;2023-02-11T11:54:14;23.10;;;6.73;;
3967;SDS011;9221;42.646;23.380;2023-02-11T11:56:49;25.77;;;6.87;;
3967;SDS011;9221;42.646;23.380;2023-02-11T11:59:18;25.17;;;7.17;;
3967;SDS011;9221;42.646;23.380;2023-02-11T12:04:35;22.33;;;7.47;;
3967;SDS011;9221;42.646;23.380;2023-02-11T12:08:09;21.73;;;7.37;;
3967;SDS011;9221;42.646;23.380;2023-02-11T12:13:34;18.10;;;6.80;;
3967;SDS011;9221;42.646;23.380;2023-02-11T12:21:48;28.13;;;5.93;;
3967;SDS011;9221;42.646;23.380;2023-02-11T12:42:10;15.23;;;4.90;;
3967;SDS011;9221;42.646;23.380;2023-02-11T12:47:51;13.83;;;5.20;;
3967;SDS011;9221;42.646;23.380;2023-02-11T12:50:31;16.53;;;5.70;;
3967;SDS011;9221;42.646;23.380;2023-02-11T12:55:43;15.17;;;4.70;;
3967;SDS011;9221;42.646;23.380;2023-02-11T12:58:17;16.63;;;4.83;;
3967;SDS011;9221;42.646;23.380;2023-02-11T13:00:47;14.00;;;4.70;;
3967;SDS011;9221;42.646;23.380;2023-02-11T13:03:18;17.63;;;4.97;;
3967;SDS011;9221;42.646;23.380;2023-02-11T13:05:53;15.37;;;5.50;;
3967;SDS011;9221;42.646;23.380;2023-02-11T13:08:29;18.57;;;5.80;;
3967;SDS011;9221;42.646;23.380;2023-02-11T13:11:02;14.93;;;5.70;;
3967;SDS011;9221;42.646;23.380;2023-02-11T13:16:26;16.63;;;5.70;;
3967;SDS011;9221;42.646;23.380;2023-02-11T13:21:45;22.67;;;5.50;;
3967;SDS011;9221;42.646;23.380;2023-02-11T13:27:14;14.87;;;5.40;;
3967;SDS011;9221;42.646;23.380;2023-02-11T13:30:13;22.10;;;5.67;;
3967;SDS011;9221;42.646;23.380;2023-02-11T13:37:56;14.70;;;5.17;;
3967;SDS011;9221;42.646;23.380;2023-02-11T13:40:26;16.77;;;5.37;;
3967;SDS011;9221;42.646;23.380;2023-02-11T13:42:59;16.13;;;5.80;;
3967;SDS011;9221;42.646;23.380;2023-02-11T13:45:45;26.40;;;6.50;;
3967;SDS011;9221;42.646;23.380;2023-02-11T13:48:19;15.50;;;5.07;;
3967;SDS011;9221;42.646;23.380;2023-02-11T13:50:50;14.23;;;4.47;;
3967;SDS011;9221;42.646;23.380;2023-02-11T13:53:19;19.37;;;5.90;;
3967;SDS011;9221;42.646;23.380;2023-02-11T13:55:47;15.70;;;5.10;;
3967;SDS011;9221;42.646;23.380;2023-02-11T13:58:16;25.43;;;5.90;;
3967;SDS011;9221;42.646;23.380;2023-02-11T14:00:51;14.70;;;4.57;;
3967;SDS011;9221;42.646;23.380;2023-02-11T14:03:20;14.83;;;4.83;;
3967;SDS011;9221;42.646;23.380;2023-02-11T14:09:37;13.43;;;4.33;;
3967;SDS011;9221;42.646;23.380;2023-02-11T14:14:16;14.73;;;5.30;;
3967;SDS011;9221;42.646;23.380;2023-02-11T14:19:29;22.57;;;5.83;;
3967;SDS011;9221;42.646;23.380;2023-02-11T14:22:00;14.17;;;4.93;;
3967;SDS011;9221;42.646;23.380;2023-02-11T14:26:58;13.20;;;4.77;;
3967;SDS011;9221;42.646;23.380;2023-02-11T14:32:14;24.90;;;5.37;;
3967;SDS011;9221;42.646;23.380;2023-02-11T14:43:24;20.90;;;5.23;;
3967;SDS011;9221;42.646;23.380;2023-02-11T14:45:54;15.23;;;4.67;;
3967;SDS011;9221;42.646;23.380;2023-02-11T14:48:25;16.10;;;5.73;;
3967;SDS011;9221;42.646;23.380;2023-02-11T14:51:15;18.00;;;5.83;;
3967;SDS011;9221;42.646;23.380;2023-02-11T14:53:42;22.67;;;6.30;;
3967;SDS011;9221;42.646;23.380;2023-02-11T14:56:21;20.50;;;5.23;;
3967;SDS011;9221;42.646;23.380;2023-02-11T14:58:50;18.50;;;6.23;;
3967;SDS011;9221;42.646;23.380;2023-02-11T15:01:27;20.90;;;6.37;;
3967;SDS011;9221;42.646;23.380;2023-02-11T15:04:32;16.80;;;6.30;;
3967;SDS011;9221;42.646;23.380;2023-02-11T15:07:03;19.80;;;6.00;;
3967;SDS011;9221;42.646;23.380;2023-02-11T15:09:40;14.93;;;5.63;;
3967;SDS011;9221;42.646;23.380;2023-02-11T15:12:19;18.83;;;5.70;;
3967;SDS011;9221;42.646;23.380;2023-02-11T15:14:53;20.23;;;6.50;;
3967;SDS011;9221;42.646;23.380;2023-02-11T15:17:23;20.23;;;7.33;;
3967;SDS011;9221;42.646;23.380;2023-02-11T15:19:53;21.07;;;6.17;;
3967;SDS011;9221;42.646;23.380;2023-02-11T15:22:25;20.53;;;6.27;;
3967;SDS011;9221;42.646;23.380;2023-02-11T15:27:41;20.10;;;6.63;;
3967;SDS011;9221;42.646;23.380;2023-02-11T15:30:30;16.30;;;6.37;;
3967;SDS011;9221;42.646;23.380;2023-02-11T15:32:57;18.47;;;6.10;;
3967;SDS011;9221;42.646;23.380;2023-02-11T15:35:34;20.90;;;6.23;;
3967;SDS011;9221;42.646;23.380;2023-02-11T15:38:03;29.43;;;6.40;;
3967;SDS011;9221;42.646;23.380;2023-02-11T15:40:30;21.33;;;6.90;;
3967;SDS011;9221;42.646;23.380;2023-02-11T15:43:01;17.73;;;5.87;;
3967;SDS011;9221;42.646;23.380;2023-02-11T15:45:33;24.07;;;6.90;;
3967;SDS011;9221;42.646;23.380;2023-02-11T15:48:12;22.47;;;6.13;;
3967;SDS011;9221;42.646;23.380;2023-02-11T15:50:48;22.37;;;6.77;;
3967;SDS011;9221;42.646;23.380;2023-02-11T15:58:59;27.20;;;6.80;;
3967;SDS011;9221;42.646;23.380;2023-02-11T16:01:37;22.90;;;8.27;;
3967;SDS011;9221;42.646;23.380;2023-02-11T16:04:04;20.63;;;7.37;;
3967;SDS011;9221;42.646;23.380;2023-02-11T16:06:39;18.73;;;6.73;;
3967;SDS011;9221;42.646;23.380;2023-02-11T16:19:32;32.97;;;8.33;;
3967;SDS011;9221;42.646;23.380;2023-02-11T16:21:59;32.50;;;9.07;;
3967;SDS011;9221;42.646;23.380;2023-02-11T16:24:32;26.63;;;8.87;;
3967;SDS011;9221;42.646;23.380;2023-02-11T16:27:01;35.10;;;8.37;;
3967;SDS011;9221;42.646;23.380;2023-02-11T16:29:29;28.97;;;8.10;;
3967;SDS011;9221;42.646;23.380;2023-02-11T16:32:15;23.87;;;7.80;;
3967;SDS011;9221;42.646;23.380;2023-02-11T16:34:42;24.10;;;8.43;;
3967;SDS011;9221;42.646;23.380;2023-02-11T16:37:08;23.80;;;7.90;;
3967;SDS011;9221;42.646;23.380;2023-02-11T16:39:34;28.83;;;9.90;;
3967;SDS011;9221;42.646;23.380;2023-02-11T16:42:00;28.87;;;10.53;;
3967;SDS011;9221;42.646;23.380;2023-02-11T16:44:26;30.07;;;9.03;;
3967;SDS011;9221;42.646;23.380;2023-02-11T16:46:52;29.60;;;8.70;;
3967;SDS011;9221;42.646;23.380;2023-02-11T16:49:31;25.00;;;7.57;;
3967;SDS011;9221;42.646;23.380;2023-02-11T16:52:00;20.40;;;6.97;;
3967;SDS011;9221;42.646;23.380;2023-02-11T16:54:29;29.03;;;8.00;;
3967;SDS011;9221;42.646;23.380;2023-02-11T16:56:55;21.70;;;8.10;;
3967;SDS011;9221;42.646;23.380;2023-02-11T16:59:21;28.20;;;9.10;;
3967;SDS011;9221;42.646;23.380;2023-02-11T17:01:46;28.40;;;8.60;;
3967;SDS011;9221;42.646;23.380;2023-02-11T17:04:20;26.17;;;8.80;;
3967;SDS011;9221;42.646;23.380;2023-02-11T17:06:49;26.73;;;7.77;;
3967;SDS011;9221;42.646;23.380;2023-02-11T17:09:25;28.67;;;6.47;;
3967;SDS011;9221;42.646;23.380;2023-02-11T17:11:52;17.10;;;5.97;;
3967;SDS011;9221;42.646;23.380;2023-02-11T17:14:18;24.17;;;7.10;;
3967;SDS011;9221;42.646;23.380;2023-02-11T17:16:44;27.87;;;6.47;;
3967;SDS011;9221;42.646;23.380;2023-02-11T17:19:11;22.40;;;6.70;;
3967;SDS011;9221;42.646;23.380;2023-02-11T17:21:41;20.30;;;6.87;;
3967;SDS011;9221;42.646;23.380;2023-02-11T17:24:07;16.73;;;5.63;;
3967;SDS011;9221;42.646;23.380;2023-02-11T17:26:33;20.67;;;6.07;;
3967;SDS011;9221;42.646;23.380;2023-02-11T17:29:01;24.10;;;7.03;;
3967;SDS011;9221;42.646;23.380;2023-02-11T17:31:28;20.20;;;7.10;;
3967;SDS011;9221;42.646;23.380;2023-02-11T17:33:54;18.23;;;6.87;;
3967;SDS011;9221;42.646;23.380;2023-02-11T17:36:19;19.53;;;6.60;;
3967;SDS011;9221;42.646;23.380;2023-02-11T17:38:45;16.80;;;5.73;;
3967;SDS011;9221;42.646;23.380;2023-02-11T17:41:10;23.97;;;6.57;;
3967;SDS011;9221;42.646;23.380;2023-02-11T17:43:36;18.20;;;6.17;;